createdAt,value
2018-07-13T00:00:21.832Z,6.83
2018-07-13T00:04:25.604Z,5.40
2018-07-13T00:08:29.472Z,4.30
2018-07-13T00:12:33.174Z,5.03
2018-07-13T00:16:39.005Z,5.73
2018-07-13T00:20:42.908Z,6.70
2018-07-13T00:24:46.556Z,7.17
2018-07-13T00:28:50.892Z,8.23
2018-07-13T00:32:54.561Z,8.90
2018-07-13T00:36:58.199Z,8.30
2018-07-13T00:41:01.961Z,9.47
2018-07-13T00:45:05.901Z,8.93
2018-07-13T00:49:09.767Z,9.40
2018-07-13T00:53:13.697Z,9.77
2018-07-13T00:57:17.540Z,10.20
2018-07-13T01:01:21.219Z,10.23
2018-07-13T01:05:25.005Z,9.53
2018-07-13T01:09:28.956Z,10.37
2018-07-13T01:13:32.656Z,9.13
2018-07-13T01:17:36.470Z,9.43
2018-07-13T01:21:40.623Z,9.70
2018-07-13T01:25:44.204Z,9.60
2018-07-13T01:29:47.742Z,7.60
2018-07-13T01:33:51.760Z,8.53
2018-07-13T01:37:55.658Z,8.63
2018-07-13T01:41:59.563Z,8.70
2018-07-13T01:46:03.501Z,9.70
2018-07-13T01:50:07.420Z,8.53
2018-07-13T01:54:11.065Z,7.77
2018-07-13T01:58:14.900Z,8.23
2018-07-13T02:02:18.761Z,6.50
2018-07-13T02:06:22.696Z,7.60
2018-07-13T02:10:26.582Z,5.17
2018-07-13T02:14:30.359Z,6.57
2018-07-13T02:18:34.112Z,6.63
2018-07-13T02:22:38.122Z,5.33
2018-07-13T02:26:42.651Z,6.00
2018-07-13T02:30:46.620Z,6.20
2018-07-13T02:34:50.481Z,5.10
2018-07-13T02:38:54.884Z,4.93
2018-07-13T02:42:58.897Z,6.00
2018-07-13T02:47:02.812Z,4.53
2018-07-13T02:51:06.701Z,4.80
2018-07-13T02:55:10.405Z,5.53
2018-07-13T02:59:14.496Z,4.90
2018-07-13T03:03:18.112Z,5.90
2018-07-13T03:07:22.211Z,8.13
2018-07-13T03:11:27.302Z,9.80
2018-07-13T03:15:31.216Z,9.03
2018-07-13T03:19:35.374Z,9.07
2018-07-13T03:23:38.934Z,10.37
2018-07-13T03:27:42.731Z,8.80
2018-07-13T03:31:46.653Z,10.70
2018-07-13T03:35:51.203Z,11.70
2018-07-13T03:39:54.853Z,12.20
2018-07-13T03:43:58.496Z,12.50
2018-07-13T03:48:02.785Z,11.17
2018-07-13T03:52:06.549Z,12.60
2018-07-13T03:56:10.357Z,12.00
2018-07-13T04:00:14.224Z,13.70
2018-07-13T04:04:18.569Z,12.90
2018-07-13T04:08:22.337Z,12.97
2018-07-13T04:12:25.871Z,13.50
2018-07-13T04:16:29.757Z,12.13
2018-07-13T04:20:33.660Z,14.10
2018-07-13T04:24:37.578Z,12.67
2018-07-13T04:28:41.954Z,12.90
2018-07-13T04:32:45.968Z,14.20
2018-07-13T04:36:49.873Z,13.50
2018-07-13T04:40:53.837Z,14.20
2018-07-13T04:44:57.523Z,13.77
2018-07-13T04:49:01.450Z,13.47
2018-07-13T04:53:05.423Z,12.53
2018-07-13T04:57:09.132Z,13.67
2018-07-13T05:01:13.185Z,13.37
2018-07-13T05:05:17.216Z,11.80
2018-07-13T05:09:21.388Z,12.40
2018-07-13T05:13:25.596Z,13.63
2018-07-13T05:17:29.484Z,12.20
2018-07-13T05:21:33.199Z,12.90
2018-07-13T05:25:37.072Z,12.60
2018-07-13T05:29:40.985Z,13.23
2018-07-13T05:33:44.640Z,12.20
2018-07-13T05:37:48.789Z,12.33
2018-07-13T05:41:52.692Z,12.30
2018-07-13T05:45:56.705Z,12.87
2018-07-13T05:50:00.379Z,11.63
2018-07-13T05:54:03.956Z,12.90
2018-07-13T05:58:07.486Z,11.70
2018-07-13T06:02:11.180Z,10.17
2018-07-13T06:06:14.723Z,9.43
2018-07-13T06:10:18.560Z,10.43
2018-07-13T06:14:22.228Z,10.20
2018-07-13T06:18:26.132Z,10.17
2018-07-13T06:22:30.039Z,8.80
2018-07-13T06:26:33.619Z,9.50
2018-07-13T06:30:37.377Z,9.73
2018-07-13T06:34:41.304Z,9.47
2018-07-13T06:38:45.226Z,10.20
2018-07-13T06:42:48.908Z,9.90
2018-07-13T06:46:52.539Z,10.10
2018-07-13T06:50:56.341Z,9.30
2018-07-13T06:55:00.002Z,10.40
2018-07-13T06:59:07.716Z,10.77
2018-07-13T07:03:11.492Z,10.60
2018-07-13T07:07:16.443Z,8.63
2018-07-13T07:11:19.770Z,10.07
2018-07-13T07:15:24.433Z,10.17
2018-07-13T07:19:28.083Z,9.73
2018-07-13T07:23:32.532Z,10.07
2018-07-13T07:27:36.543Z,9.83
2018-07-13T07:31:40.454Z,9.17
2018-07-13T07:35:44.320Z,9.63
2018-07-13T07:39:48.005Z,9.00
2018-07-13T07:43:51.585Z,12.30
2018-07-13T07:47:55.315Z,9.33
2018-07-13T07:51:58.980Z,8.77
2018-07-13T07:56:02.768Z,9.00
2018-07-13T08:00:06.671Z,8.77
2018-07-13T08:04:10.432Z,9.70
2018-07-13T08:08:13.947Z,8.50
2018-07-13T08:12:17.716Z,9.13
2018-07-13T08:16:21.573Z,7.33
2018-07-13T08:20:26.146Z,8.37
2018-07-13T08:24:29.643Z,8.53
2018-07-13T08:28:34.121Z,8.37
2018-07-13T08:32:37.689Z,8.50
2018-07-13T08:36:41.324Z,8.10
2018-07-13T08:40:44.835Z,8.53
2018-07-13T08:44:48.593Z,9.20
2018-07-13T08:48:52.252Z,8.20
2018-07-13T08:52:56.376Z,8.60
2018-07-13T08:57:00.443Z,7.90
2018-07-13T09:01:04.209Z,8.00
2018-07-13T09:05:08.391Z,8.03
2018-07-13T09:09:12.598Z,7.27
2018-07-13T09:13:16.132Z,7.00
2018-07-13T09:17:19.672Z,8.50
2018-07-13T09:21:23.473Z,6.77
2018-07-13T09:25:27.272Z,7.60
2018-07-13T09:29:31.141Z,6.23
2018-07-13T09:33:35.040Z,6.80
2018-07-13T09:37:38.693Z,7.93
2018-07-13T09:41:42.468Z,7.00
2018-07-13T09:45:46.348Z,7.13
2018-07-13T09:49:50.268Z,6.97
2018-07-13T09:53:53.997Z,5.77
2018-07-13T09:57:57.475Z,5.83
2018-07-13T10:02:01.000Z,7.33
2018-07-13T10:06:05.090Z,6.00
2018-07-13T10:10:08.952Z,7.77
2018-07-13T10:14:12.861Z,5.60
2018-07-13T10:18:16.735Z,5.40
2018-07-13T10:22:22.827Z,6.67
2018-07-13T10:26:28.119Z,6.40
2018-07-13T10:30:31.904Z,6.17
2018-07-13T10:34:35.535Z,5.40
2018-07-13T10:38:39.211Z,6.10
2018-07-13T10:42:42.952Z,6.00
2018-07-13T10:46:46.872Z,5.83
2018-07-13T10:50:50.776Z,6.63
2018-07-13T10:54:54.693Z,6.70
2018-07-13T10:58:58.956Z,5.43
2018-07-13T11:03:02.666Z,5.37
2018-07-13T11:07:06.305Z,4.50
2018-07-13T11:11:10.168Z,5.60
2018-07-13T11:15:13.823Z,5.00
2018-07-13T11:19:17.388Z,5.10
2018-07-13T11:23:21.156Z,4.63
2018-07-13T11:27:24.968Z,3.90
2018-07-13T11:31:28.732Z,4.43
2018-07-13T11:35:32.733Z,4.93
2018-07-13T11:39:36.640Z,5.83
2018-07-13T11:43:40.568Z,5.00
2018-07-13T11:47:44.216Z,4.10
2018-07-13T11:51:48.014Z,5.73
2018-07-13T11:55:51.890Z,5.10
2018-07-13T11:59:55.634Z,5.17
2018-07-13T12:03:59.143Z,4.73
2018-07-13T12:08:03.174Z,4.60
2018-07-13T12:12:07.027Z,5.53
2018-07-13T12:16:11.090Z,4.70
2018-07-13T12:20:14.953Z,5.20
2018-07-13T12:24:18.856Z,5.30
2018-07-13T12:28:23.156Z,4.50
2018-07-13T12:32:27.191Z,4.50
2018-07-13T12:36:30.772Z,4.90
2018-07-13T12:40:34.329Z,5.40
2018-07-13T12:44:38.074Z,4.40
2018-07-13T12:48:41.839Z,3.80
2018-07-13T12:52:45.360Z,3.67
2018-07-13T12:56:49.244Z,3.73
2018-07-13T13:00:53.103Z,3.50
2018-07-13T13:04:57.012Z,4.93
2018-07-13T13:09:00.998Z,4.47
2018-07-13T13:13:04.902Z,4.47
2018-07-13T13:17:08.564Z,4.30
2018-07-13T13:21:12.103Z,4.50
2018-07-13T13:25:15.896Z,3.80
2018-07-13T13:29:19.568Z,3.57
2018-07-13T13:33:23.328Z,4.63
2018-07-13T13:37:27.097Z,4.10
2018-07-13T13:41:30.612Z,4.70
2018-07-13T13:45:34.506Z,3.93
2018-07-13T13:49:38.370Z,3.40
2018-07-13T13:53:42.383Z,3.60
2018-07-13T13:57:46.016Z,3.90
2018-07-13T14:01:49.909Z,3.90
2018-07-13T14:05:53.796Z,3.20
2018-07-13T14:09:57.688Z,4.57
2018-07-13T14:14:01.569Z,3.47
2018-07-13T14:18:05.359Z,4.37
2018-07-13T14:22:08.875Z,4.00
2018-07-13T14:26:12.418Z,3.40
2018-07-13T14:30:16.149Z,3.90
2018-07-13T14:34:19.823Z,3.83
2018-07-13T14:38:23.804Z,3.07
2018-07-13T14:42:27.697Z,2.87
2018-07-13T14:46:31.564Z,2.90
2018-07-13T14:50:35.477Z,3.67
2018-07-13T14:54:39.131Z,3.57
2018-07-13T14:58:42.710Z,2.70
2018-07-13T15:02:46.449Z,4.10
2018-07-13T15:06:50.283Z,3.30
2018-07-13T15:10:54.064Z,4.00
2018-07-13T15:14:57.773Z,3.20
2018-07-13T15:19:01.284Z,3.57
2018-07-13T15:23:05.221Z,3.47
2018-07-13T15:27:08.855Z,4.40
2018-07-13T15:31:12.466Z,3.83
2018-07-13T15:35:16.208Z,3.20
2018-07-13T15:39:20.182Z,4.37
2018-07-13T15:43:24.092Z,3.67
2018-07-13T15:47:28.098Z,3.93
2018-07-13T15:51:31.596Z,4.33
2018-07-13T15:55:40.617Z,4.57
2018-07-13T15:59:52.959Z,3.90
2018-07-13T16:03:56.756Z,4.30
2018-07-13T16:08:00.608Z,4.47
2018-07-13T16:12:04.563Z,4.97
2018-07-13T16:16:08.091Z,4.70
2018-07-13T16:20:11.844Z,4.50
2018-07-13T16:24:15.501Z,4.07
2018-07-13T16:28:19.180Z,4.47
2018-07-13T16:32:22.629Z,4.07
2018-07-13T16:36:26.167Z,3.87
2018-07-13T16:40:29.683Z,4.70
2018-07-13T16:44:33.343Z,4.67
2018-07-13T16:48:37.096Z,4.40
2018-07-13T16:52:41.024Z,4.20
2018-07-13T16:56:45.244Z,4.43
2018-07-13T17:00:49.020Z,5.10
2018-07-13T17:04:52.681Z,4.20
2018-07-13T17:08:56.617Z,4.03
2018-07-13T17:13:01.593Z,4.83
2018-07-13T17:17:05.108Z,4.43
2018-07-13T17:21:08.640Z,4.20
2018-07-13T17:25:12.425Z,3.77
2018-07-13T17:29:16.396Z,4.33
2018-07-13T17:33:20.299Z,3.47
2018-07-13T17:37:23.944Z,4.00
2018-07-13T17:41:28.117Z,4.70
2018-07-13T17:45:31.981Z,5.10
2018-07-13T17:49:36.945Z,4.30
2018-07-13T17:53:40.627Z,4.03
2018-07-13T17:57:44.425Z,4.10
2018-07-13T18:01:49.206Z,3.97
2018-07-13T18:05:53.041Z,3.93
2018-07-13T18:09:58.758Z,4.57
2018-07-13T18:14:02.806Z,4.70
2018-07-13T18:18:08.281Z,4.23
2018-07-13T18:22:12.008Z,3.87
2018-07-13T18:26:15.772Z,3.53
2018-07-13T18:30:19.676Z,4.20
2018-07-13T18:34:23.329Z,4.60
2018-07-13T18:38:26.965Z,4.10
2018-07-13T18:42:30.487Z,3.70
2018-07-13T18:46:34.954Z,4.00
2018-07-13T18:50:38.456Z,4.77
2018-07-13T18:54:42.252Z,3.80
2018-07-13T18:58:46.243Z,4.37
2018-07-13T19:02:49.912Z,4.40
2018-07-13T19:06:53.712Z,4.87
2018-07-13T19:10:57.620Z,4.53
2018-07-13T19:15:01.615Z,4.37
2018-07-13T19:19:05.317Z,4.40
2018-07-13T19:23:08.852Z,4.50
2018-07-13T19:27:12.664Z,4.17
2018-07-13T19:31:16.304Z,4.63
2018-07-13T19:35:20.083Z,3.90
2018-07-13T19:39:23.763Z,4.30
2018-07-13T19:43:27.332Z,4.47
2018-07-13T19:47:31.812Z,4.30
2018-07-13T19:51:35.606Z,4.60
2018-07-13T19:55:39.492Z,4.40
2018-07-13T19:59:43.239Z,3.93
2018-07-13T20:03:46.767Z,4.70
2018-07-13T20:07:50.323Z,4.10
2018-07-13T20:11:53.852Z,4.27
2018-07-13T20:15:57.595Z,4.13
2018-07-13T20:20:01.128Z,4.50
2018-07-13T20:24:05.244Z,4.50
2018-07-13T20:28:09.564Z,4.97
2018-07-13T20:32:13.264Z,4.97
2018-07-13T20:36:17.952Z,6.50
2018-07-13T20:40:21.859Z,6.10
2018-07-13T20:44:25.716Z,6.17
2018-07-13T20:48:29.488Z,5.97
2018-07-13T20:52:33.045Z,5.60
2018-07-13T20:56:36.572Z,4.73
2018-07-13T21:00:40.082Z,5.60
2018-07-13T21:04:43.643Z,4.70
2018-07-13T21:08:47.609Z,5.40
2018-07-13T21:12:51.291Z,5.77
2018-07-13T21:16:55.025Z,5.97
2018-07-13T21:20:59.016Z,7.73
2018-07-13T21:25:02.726Z,8.67
2018-07-13T21:29:07.348Z,8.20
2018-07-13T21:33:11.445Z,7.40
2018-07-13T21:37:15.120Z,7.47
2018-07-13T21:41:19.616Z,8.10
2018-07-13T21:45:23.741Z,7.23
2018-07-13T21:49:27.308Z,7.47
2018-07-13T21:53:31.350Z,6.93
2018-07-13T21:57:35.377Z,7.57
2018-07-13T22:01:39.637Z,6.73
2018-07-13T22:05:43.520Z,7.00
2018-07-13T22:09:47.414Z,6.73
2018-07-13T22:13:51.224Z,7.50
2018-07-13T22:17:54.799Z,6.70
2018-07-13T22:21:58.536Z,7.20
2018-07-13T22:26:03.965Z,7.07
2018-07-13T22:30:28.307Z,6.17
2018-07-13T22:34:32.310Z,7.17
2018-07-13T22:40:06.353Z,6.17
2018-07-13T22:44:10.065Z,7.83
2018-07-13T22:48:14.123Z,6.17
2018-07-13T22:52:17.876Z,8.60
2018-07-13T22:56:21.769Z,7.70
2018-07-13T23:00:25.434Z,7.33
2018-07-13T23:04:29.305Z,8.70
2018-07-13T23:08:32.956Z,6.83
2018-07-13T23:12:36.592Z,8.00
2018-07-13T23:16:40.333Z,7.47
2018-07-13T23:20:44.243Z,8.43
2018-07-13T23:24:47.816Z,8.13
2018-07-13T23:28:51.538Z,7.33
2018-07-13T23:32:55.288Z,7.00
2018-07-13T23:36:58.979Z,7.70
2018-07-13T23:41:02.514Z,4.70
2018-07-13T23:45:06.310Z,4.50
2018-07-13T23:49:10.196Z,7.00
2018-07-13T23:53:14.114Z,6.80
2018-07-13T23:57:18.020Z,6.77
